Terminal Aerodrome Forecast
Issued by NWS

Home | Current Version | Previous Version | Graphics & Text | Print | Product List | Glossary On
Versions: 1 2 3 4 5 6 7 8 9 10 11 12 13 14 15 16 17 18 19 20 21 22 23 24
000
FTUS43 KLOT 010258 AAA
TAFORD
TAF AMD
KORD 010258Z 0103/0206 24013G20KT P6SM VCSH SCT018 OVC025
     FM010600 25013G20KT 6SM -SHSN OVC015
      TEMPO 0107/0110 5SM -SHSN BR OVC010
     FM011100 26012G18KT P6SM -SHSN SCT008 OVC012
     FM011500 27013G21KT P6SM OVC025
     FM020100 26009KT P6SM OVC020=

USA.gov is the U.S. government's official web portal to all federal, state and local government web resources and services.